createdAt,value
2019-01-02T00:02:17.721Z,5.20
2019-01-02T00:04:48.505Z,5.20
2019-01-02T00:07:19.571Z,5.10
2019-01-02T00:09:50.375Z,5.20
2019-01-02T00:12:21.057Z,5.20
2019-01-02T00:14:51.685Z,5.20
2019-01-02T00:17:21.959Z,5.30
2019-01-02T00:19:52.763Z,5.30
2019-01-02T00:22:23.397Z,5.40
2019-01-02T00:24:54.517Z,5.40
2019-01-02T00:27:25.420Z,5.40
2019-01-02T00:29:56.205Z,5.40
2019-01-02T00:32:27.025Z,5.40
2019-01-02T00:34:57.629Z,5.40
2019-01-02T00:37:28.256Z,5.50
2019-01-02T00:39:58.942Z,5.50
2019-01-02T00:42:30.150Z,5.50
2019-01-02T00:45:01.032Z,5.60
2019-01-02T00:47:31.378Z,5.60
2019-01-02T00:50:01.947Z,5.60
2019-01-02T00:52:32.253Z,5.60
2019-01-02T00:55:02.225Z,5.60
2019-01-02T00:57:33.222Z,5.60
2019-01-02T01:00:03.449Z,5.60
2019-01-02T01:02:34.546Z,5.50
2019-01-02T01:05:05.487Z,5.50
2019-01-02T01:07:35.826Z,5.40
2019-01-02T01:10:09.971Z,5.40
2019-01-02T01:12:41.257Z,5.40
2019-01-02T01:15:11.681Z,5.40
2019-01-02T01:17:42.133Z,5.30
2019-01-02T01:20:15.421Z,5.30
2019-01-02T01:22:46.129Z,5.20
2019-01-02T01:25:16.834Z,5.10
2019-01-02T01:27:47.454Z,5.10
2019-01-02T01:30:18.061Z,5.00
2019-01-02T01:32:48.825Z,5.00
2019-01-02T01:35:20.209Z,4.90
2019-01-02T01:37:55.403Z,4.90
2019-01-02T01:40:26.437Z,4.90
2019-01-02T01:42:56.910Z,4.90
2019-01-02T01:45:27.512Z,4.80
2019-01-02T01:47:59.398Z,4.80
2019-01-02T01:50:29.516Z,4.80
2019-01-02T01:52:59.618Z,4.80
2019-01-02T01:55:30.182Z,4.80
2019-01-02T01:58:01.194Z,4.70
2019-01-02T02:00:32.144Z,4.70
2019-01-02T02:03:02.109Z,4.80
2019-01-02T02:05:32.858Z,4.80
2019-01-02T02:08:02.987Z,4.70
2019-01-02T02:10:33.500Z,4.70
2019-01-02T02:13:06.068Z,4.60
2019-01-02T02:15:37.010Z,4.60
2019-01-02T02:18:07.595Z,4.60
2019-01-02T02:20:38.502Z,4.50
2019-01-02T02:23:09.210Z,4.50
2019-01-02T02:25:40.402Z,4.50
2019-01-02T02:28:11.241Z,4.50
2019-01-02T02:30:41.262Z,4.40
2019-01-02T02:33:12.541Z,4.50
2019-01-02T02:35:43.172Z,4.50
2019-01-02T02:38:14.092Z,4.40
2019-01-02T02:40:44.987Z,4.40
2019-01-02T02:43:15.794Z,4.40
2019-01-02T02:45:46.611Z,4.40
2019-01-02T02:48:17.233Z,4.40
2019-01-02T02:50:48.397Z,4.40
2019-01-02T02:53:19.508Z,4.30
2019-01-02T02:55:50.110Z,4.40
2019-01-02T02:58:20.660Z,4.30
2019-01-02T03:00:51.364Z,4.30
2019-01-02T03:03:22.396Z,4.30
2019-01-02T03:05:52.872Z,4.30
2019-01-02T03:08:23.429Z,4.30
2019-01-02T03:10:54.067Z,4.30
2019-01-02T03:13:24.840Z,4.30
2019-01-02T03:15:55.389Z,4.30
2019-01-02T03:18:25.714Z,4.30
2019-01-02T03:20:55.887Z,4.30
2019-01-02T03:23:26.388Z,4.30
2019-01-02T03:25:57.098Z,4.30
2019-01-02T03:28:28.036Z,4.40
2019-01-02T03:30:59.280Z,4.40
2019-01-02T03:33:30.123Z,4.40
2019-01-02T03:36:00.456Z,4.40
2019-01-02T03:38:31.070Z,4.40
2019-01-02T03:41:01.577Z,4.40
2019-01-02T03:43:32.311Z,4.40
2019-01-02T03:46:03.197Z,4.40
2019-01-02T03:48:36.031Z,4.40
2019-01-02T03:51:07.099Z,4.40
2019-01-02T03:53:37.625Z,4.40
2019-01-02T03:56:08.665Z,4.50
2019-01-02T03:58:39.537Z,4.50
2019-01-02T04:01:10.156Z,4.50
2019-01-02T04:03:40.662Z,4.50
2019-01-02T04:06:11.846Z,4.50
2019-01-02T04:08:42.117Z,4.40
2019-01-02T04:11:12.785Z,4.40
2019-01-02T04:13:43.118Z,4.40
2019-01-02T04:16:13.551Z,4.30
2019-01-02T04:18:44.106Z,4.30
2019-01-02T04:21:14.445Z,4.30
2019-01-02T04:23:45.410Z,4.40
2019-01-02T04:26:16.377Z,4.40
2019-01-02T04:28:46.818Z,4.50
2019-01-02T04:31:17.986Z,4.50
2019-01-02T04:33:48.382Z,4.50
2019-01-02T04:36:19.185Z,4.50
2019-01-02T04:38:49.462Z,4.60
2019-01-02T04:41:19.538Z,4.60
2019-01-02T04:43:49.690Z,4.60
2019-01-02T04:46:20.224Z,4.70
2019-01-02T04:48:50.603Z,4.70
2019-01-02T04:51:21.394Z,4.80
2019-01-02T04:53:51.751Z,4.80
2019-01-02T04:56:22.638Z,4.80
2019-01-02T04:58:52.841Z,4.80
2019-01-02T05:01:23.384Z,4.80
2019-01-02T05:03:53.264Z,4.80
2019-01-02T05:06:23.700Z,4.80
2019-01-02T05:08:54.250Z,4.80
2019-01-02T05:11:24.461Z,4.80
2019-01-02T05:13:54.540Z,4.80
2019-01-02T05:16:25.134Z,4.80
2019-01-02T05:18:55.960Z,4.80
2019-01-02T05:21:26.831Z,4.80
2019-01-02T05:23:57.301Z,4.80
2019-01-02T05:26:28.280Z,4.90
2019-01-02T05:28:59.034Z,4.90
2019-01-02T05:31:29.850Z,4.90
2019-01-02T05:34:00.736Z,4.90
2019-01-02T05:36:31.070Z,4.90
2019-01-02T05:39:01.359Z,4.90
2019-01-02T05:41:32.950Z,4.80
2019-01-02T05:44:03.720Z,4.80
2019-01-02T05:46:34.470Z,4.80
2019-01-02T05:49:04.938Z,4.80
2019-01-02T05:51:35.907Z,4.70
2019-01-02T05:54:06.402Z,4.80
2019-01-02T05:56:36.934Z,4.80
2019-01-02T05:59:07.849Z,4.80
2019-01-02T06:01:38.635Z,4.80
2019-01-02T06:04:09.266Z,4.80
2019-01-02T06:06:39.508Z,4.90
2019-01-02T06:09:10.324Z,4.90
2019-01-02T06:11:40.683Z,4.90
2019-01-02T06:14:11.207Z,4.90
2019-01-02T06:16:42.091Z,5.00
2019-01-02T06:19:13.092Z,4.90
2019-01-02T06:21:43.889Z,4.90
2019-01-02T06:24:14.871Z,4.90
2019-01-02T06:26:45.193Z,4.80
2019-01-02T06:29:16.220Z,4.80
2019-01-02T06:31:46.972Z,4.80
2019-01-02T06:34:17.540Z,4.80
2019-01-02T06:36:48.158Z,4.70
2019-01-02T06:39:18.842Z,4.70
2019-01-02T06:41:49.730Z,4.60
2019-01-02T06:44:20.596Z,4.50
2019-01-02T06:46:51.188Z,4.50
2019-01-02T06:49:22.033Z,4.50
2019-01-02T06:51:52.303Z,4.40
2019-01-02T06:54:22.665Z,4.40
2019-01-02T06:56:53.551Z,4.40
2019-01-02T06:59:24.409Z,4.40
2019-01-02T07:01:55.024Z,4.40
2019-01-02T07:04:25.873Z,4.50
2019-01-02T07:06:56.405Z,4.50
2019-01-02T07:09:26.955Z,4.60
2019-01-02T07:11:57.707Z,4.60
2019-01-02T07:14:28.481Z,4.60
2019-01-02T07:16:58.580Z,4.70
2019-01-02T07:19:28.949Z,4.70
2019-01-02T07:21:59.613Z,4.70
2019-01-02T07:24:31.083Z,4.80
2019-01-02T07:27:01.837Z,4.80
2019-01-02T07:29:32.309Z,4.80
2019-01-02T07:32:02.902Z,4.90
2019-01-02T07:34:54.974Z,4.90
2019-01-02T07:38:15.283Z,4.90
2019-01-02T07:41:24.313Z,4.90
2019-01-02T07:44:32.137Z,4.90
2019-01-02T07:47:33.981Z,4.90
2019-01-02T07:50:35.613Z,4.90
2019-01-02T07:53:35.678Z,4.90
2019-01-02T07:56:46.400Z,4.90
2019-01-02T08:00:21.865Z,4.90
2019-01-02T08:03:16.827Z,5.00
2019-01-02T08:06:29.961Z,5.10
2019-01-02T08:09:27.673Z,5.10
2019-01-02T08:12:24.979Z,5.20
2019-01-02T08:15:41.223Z,5.20
2019-01-02T08:18:32.646Z,5.20
2019-01-02T08:21:45.983Z,5.20
2019-01-02T08:24:57.339Z,5.20
2019-01-02T08:28:19.483Z,5.30
2019-01-02T08:31:43.100Z,5.30
2019-01-02T08:34:49.584Z,5.30
2019-01-02T08:37:30.192Z,5.30
2019-01-02T08:40:28.837Z,5.40
2019-01-02T08:43:34.625Z,5.40
2019-01-02T08:46:32.284Z,5.40
2019-01-02T08:49:45.217Z,5.50
2019-01-02T08:52:52.783Z,5.50
2019-01-02T08:55:48.327Z,5.50
2019-01-02T08:59:01.525Z,5.50
2019-01-02T09:02:00.911Z,5.60
2019-01-02T09:05:17.880Z,5.50
2019-01-02T09:08:39.916Z,5.60
2019-01-02T09:11:35.138Z,5.60
2019-01-02T09:14:37.097Z,5.60
2019-01-02T09:17:56.792Z,5.70
2019-01-02T09:20:58.390Z,5.70
2019-01-02T09:23:58.574Z,5.80
2019-01-02T09:27:18.734Z,6.20
2019-01-02T09:30:35.915Z,6.50
2019-01-02T09:33:43.085Z,6.70
2019-01-02T09:36:50.675Z,7.20
2019-01-02T09:39:56.522Z,8.20
2019-01-02T09:43:05.241Z,9.30
2019-01-02T09:46:18.230Z,10.00
2019-01-02T09:49:23.678Z,10.20
2019-01-02T09:52:27.089Z,10.00
2019-01-02T09:55:40.337Z,10.60
2019-01-02T09:58:50.704Z,10.90
2019-01-02T10:02:03.702Z,11.00
2019-01-02T10:05:24.079Z,10.20
2019-01-02T10:08:32.812Z,9.10
2019-01-02T10:11:26.362Z,8.40
2019-01-02T10:14:34.894Z,8.00
2019-01-02T10:17:45.798Z,7.60
2019-01-02T10:20:25.275Z,7.50
2019-01-02T10:23:36.800Z,8.00
2019-01-02T10:26:40.252Z,8.40
2019-01-02T10:30:00.719Z,8.40
2019-01-02T10:33:12.482Z,8.20
2019-01-02T10:35:56.403Z,7.80
2019-01-02T10:39:16.530Z,7.70
2019-01-02T10:42:23.529Z,7.50
2019-01-02T10:45:31.378Z,7.20
2019-01-02T10:48:29.426Z,7.20
2019-01-02T10:51:36.375Z,7.30
2019-01-02T10:54:44.265Z,7.60
2019-01-02T10:57:30.598Z,7.40
2019-01-02T11:00:37.803Z,7.20
2019-01-02T11:03:57.127Z,7.30
2019-01-02T11:06:57.416Z,7.30
2019-01-02T11:10:00.693Z,7.70
2019-01-02T11:12:56.587Z,7.80
2019-01-02T11:16:20.127Z,7.60
2019-01-02T11:19:39.435Z,7.70
2019-01-02T11:22:31.773Z,7.70
2019-01-02T11:25:45.109Z,7.50
2019-01-02T11:28:58.597Z,7.20
2019-01-02T11:32:17.333Z,6.90
2019-01-02T11:35:31.379Z,6.60
2019-01-02T11:38:39.485Z,6.60
2019-01-02T11:41:56.774Z,6.60
2019-01-02T11:45:04.889Z,6.40
2019-01-02T11:47:35.425Z,6.80
2019-01-02T11:50:08.066Z,8.10
2019-01-02T11:52:38.470Z,8.90
2019-01-02T11:55:08.891Z,9.40
2019-01-02T11:57:39.901Z,9.70
2019-01-02T12:00:16.150Z,10.30
2019-01-02T12:02:46.623Z,10.70
2019-01-02T12:05:17.287Z,10.30
2019-01-02T12:07:48.187Z,9.70
2019-01-02T12:10:18.987Z,9.90
2019-01-02T12:12:49.289Z,10.30
2019-01-02T12:15:19.971Z,10.20
2019-01-02T12:17:50.215Z,10.30
2019-01-02T12:20:20.599Z,10.50
2019-01-02T12:22:51.036Z,10.70
2019-01-02T12:25:21.641Z,11.10
2019-01-02T12:27:53.541Z,11.50
2019-01-02T12:30:24.090Z,11.90
2019-01-02T12:32:54.082Z,12.30
2019-01-02T12:35:24.821Z,12.80
2019-01-02T12:37:55.259Z,12.60
2019-01-02T12:40:25.994Z,12.90
2019-01-02T12:42:56.039Z,12.80
2019-01-02T12:45:26.659Z,12.90
2019-01-02T12:47:57.158Z,12.90
2019-01-02T12:50:27.506Z,12.90
2019-01-02T12:52:57.915Z,13.00
2019-01-02T12:55:28.549Z,13.10
2019-01-02T12:57:59.584Z,13.20
2019-01-02T13:00:35.449Z,12.90
2019-01-02T13:03:46.432Z,12.90
2019-01-02T13:06:34.318Z,13.30
2019-01-02T13:09:40.509Z,13.30
2019-01-02T13:12:57.898Z,13.10
2019-01-02T13:15:50.286Z,12.80
2019-01-02T13:19:01.688Z,12.90
2019-01-02T13:21:37.864Z,13.10
2019-01-02T13:24:28.862Z,12.60
2019-01-02T13:27:34.657Z,12.00
2019-01-02T13:30:32.860Z,12.10
2019-01-02T13:33:49.648Z,12.60
2019-01-02T13:36:40.571Z,12.10
2019-01-02T13:40:00.685Z,11.50
2019-01-02T13:43:28.042Z,10.60
2019-01-02T13:46:24.699Z,9.50
2019-01-02T13:49:23.952Z,8.70
2019-01-02T13:51:55.544Z,8.50
2019-01-02T13:54:28.154Z,8.20
2019-01-02T13:56:58.359Z,8.00
2019-01-02T13:59:28.940Z,7.80
2019-01-02T14:01:59.444Z,7.80
2019-01-02T14:04:30.302Z,7.80
2019-01-02T14:07:00.554Z,7.70
2019-01-02T14:09:31.311Z,7.50
2019-01-02T14:12:02.215Z,7.30
2019-01-02T14:14:33.214Z,7.10
2019-01-02T14:17:04.210Z,7.10
2019-01-02T14:19:35.293Z,7.10
2019-01-02T14:22:05.974Z,7.00
2019-01-02T14:24:36.210Z,7.00
2019-01-02T14:27:06.200Z,6.80
2019-01-02T14:29:36.804Z,6.70
2019-01-02T14:32:07.043Z,6.70
2019-01-02T14:34:37.572Z,6.70
2019-01-02T14:37:08.551Z,6.70
2019-01-02T14:39:39.145Z,6.70
2019-01-02T14:42:09.933Z,6.90
2019-01-02T14:44:40.943Z,7.10
2019-01-02T14:47:11.191Z,7.30
2019-01-02T14:49:41.875Z,7.30
2019-01-02T14:52:12.953Z,7.10
2019-01-02T14:54:43.567Z,7.00
2019-01-02T14:57:14.239Z,7.00
2019-01-02T14:59:44.486Z,7.00
2019-01-02T15:02:15.107Z,7.00
2019-01-02T15:04:45.343Z,6.80
2019-01-02T15:07:15.892Z,6.80
2019-01-02T15:09:46.472Z,6.80
2019-01-02T15:12:17.240Z,6.80
2019-01-02T15:14:47.906Z,6.80
2019-01-02T15:17:18.480Z,6.70
2019-01-02T15:19:48.725Z,6.70
2019-01-02T15:22:18.519Z,6.60
2019-01-02T15:24:49.665Z,6.40
2019-01-02T15:27:20.550Z,6.20
2019-01-02T15:29:51.117Z,6.10
2019-01-02T15:32:21.758Z,6.00
2019-01-02T15:34:52.095Z,5.90
2019-01-02T15:37:22.940Z,5.80
2019-01-02T15:39:53.613Z,5.70
2019-01-02T15:42:24.153Z,5.60
2019-01-02T15:44:54.841Z,5.50
2019-01-02T15:47:25.879Z,5.50
2019-01-02T15:49:56.101Z,5.40
2019-01-02T15:52:27.180Z,5.30
2019-01-02T15:54:57.861Z,5.20
2019-01-02T15:57:28.471Z,5.20
2019-01-02T15:59:59.383Z,5.10
2019-01-02T16:02:30.089Z,5.10
2019-01-02T16:05:00.806Z,5.00
2019-01-02T16:07:31.647Z,5.00
2019-01-02T16:10:02.525Z,4.90
2019-01-02T16:12:33.319Z,4.80
2019-01-02T16:15:04.523Z,4.90
2019-01-02T16:17:35.319Z,4.80
2019-01-02T16:20:07.098Z,4.80
2019-01-02T16:22:37.818Z,4.80
2019-01-02T16:25:09.378Z,4.70
2019-01-02T16:27:40.057Z,4.70
2019-01-02T16:30:10.985Z,4.70
2019-01-02T16:32:41.344Z,4.60
2019-01-02T16:35:20.621Z,4.60
2019-01-02T16:37:52.380Z,4.60
2019-01-02T16:40:23.422Z,4.60
2019-01-02T16:42:53.815Z,4.50
2019-01-02T16:45:24.608Z,4.50
2019-01-02T16:47:55.562Z,4.50
2019-01-02T16:50:26.403Z,4.50
2019-01-02T16:52:57.292Z,4.50
2019-01-02T16:55:27.898Z,4.50
2019-01-02T16:57:58.183Z,4.50
2019-01-02T17:00:28.866Z,4.40
2019-01-02T17:02:59.844Z,4.40
2019-01-02T17:05:30.550Z,4.40
2019-01-02T17:08:01.489Z,4.40
2019-01-02T17:10:31.898Z,4.40
2019-01-02T17:13:02.208Z,4.30
2019-01-02T17:15:33.324Z,4.30
2019-01-02T17:18:04.022Z,4.30
2019-01-02T17:20:34.478Z,4.20
2019-01-02T17:23:05.482Z,4.20
2019-01-02T17:25:35.934Z,4.10
2019-01-02T17:28:06.548Z,4.10
2019-01-02T17:30:36.960Z,4.00
2019-01-02T17:33:07.782Z,4.00
2019-01-02T17:35:38.043Z,4.00
2019-01-02T17:38:08.702Z,3.90
2019-01-02T17:40:39.074Z,3.90
2019-01-02T17:43:11.327Z,3.90
2019-01-02T17:45:42.163Z,3.80
2019-01-02T17:48:12.820Z,3.80
2019-01-02T17:50:43.818Z,3.70
2019-01-02T17:53:14.540Z,3.70
2019-01-02T17:55:45.257Z,3.60
2019-01-02T17:58:16.071Z,3.60
2019-01-02T18:00:48.314Z,3.60
2019-01-02T18:03:19.048Z,3.60
2019-01-02T18:05:49.501Z,3.50
2019-01-02T18:08:19.798Z,3.50
2019-01-02T18:10:50.965Z,3.50
2019-01-02T18:13:21.595Z,3.50
2019-01-02T18:15:51.789Z,3.40
2019-01-02T18:18:21.690Z,3.40
2019-01-02T18:20:52.749Z,3.40
2019-01-02T18:23:23.573Z,3.40
2019-01-02T18:25:54.974Z,3.30
2019-01-02T18:28:25.507Z,3.30
2019-01-02T18:30:55.905Z,3.30
2019-01-02T18:33:26.060Z,3.20
2019-01-02T18:35:56.845Z,3.30
2019-01-02T18:38:27.350Z,3.30
2019-01-02T18:40:57.934Z,3.30
2019-01-02T18:43:28.857Z,3.30
2019-01-02T18:45:59.686Z,3.30
2019-01-02T18:48:30.131Z,3.20
2019-01-02T18:51:01.129Z,3.20
2019-01-02T18:53:31.106Z,3.20
2019-01-02T18:56:01.492Z,3.20
2019-01-02T18:58:31.802Z,3.10
2019-01-02T19:01:02.211Z,3.10
2019-01-02T19:03:32.354Z,3.10
2019-01-02T19:06:02.806Z,3.00
2019-01-02T19:08:33.777Z,3.00
2019-01-02T19:11:03.667Z,3.00
2019-01-02T19:13:34.406Z,2.90
2019-01-02T19:16:05.062Z,2.90
2019-01-02T19:18:35.366Z,2.90
2019-01-02T19:21:06.122Z,2.90
2019-01-02T19:23:36.063Z,2.90
2019-01-02T19:26:05.941Z,2.90
2019-01-02T19:28:36.107Z,2.90
2019-01-02T19:31:06.361Z,2.90
2019-01-02T19:33:37.058Z,2.90
2019-01-02T19:36:08.101Z,2.90
2019-01-02T19:38:38.520Z,2.90
2019-01-02T19:41:09.139Z,2.80
2019-01-02T19:43:39.475Z,2.80
2019-01-02T19:46:10.056Z,2.80
2019-01-02T19:48:40.958Z,2.80
2019-01-02T19:51:11.665Z,2.70
2019-01-02T19:53:43.182Z,2.70
2019-01-02T19:56:13.371Z,2.70
2019-01-02T19:58:43.968Z,2.70
2019-01-02T20:01:14.816Z,2.70
2019-01-02T20:03:45.468Z,2.60
2019-01-02T20:06:16.363Z,2.60
2019-01-02T20:08:46.991Z,2.60
2019-01-02T20:11:17.870Z,2.60
2019-01-02T20:13:48.137Z,2.60
2019-01-02T20:16:18.521Z,2.60
2019-01-02T20:18:48.641Z,2.60
2019-01-02T20:21:18.641Z,2.70
2019-01-02T20:23:49.469Z,2.60
2019-01-02T20:26:19.789Z,2.60
2019-01-02T20:28:50.199Z,2.60
2019-01-02T20:31:20.485Z,2.60
2019-01-02T20:33:50.785Z,2.60
2019-01-02T20:36:21.163Z,2.60
2019-01-02T20:38:51.441Z,2.60
2019-01-02T20:41:21.904Z,2.60
2019-01-02T20:43:52.025Z,2.60
2019-01-02T20:46:22.584Z,2.60
2019-01-02T20:48:53.481Z,2.60
2019-01-02T20:51:23.817Z,2.60
2019-01-02T20:53:53.888Z,2.60
2019-01-02T20:56:24.047Z,2.60
2019-01-02T20:58:54.514Z,2.50
2019-01-02T21:01:24.347Z,2.60
2019-01-02T21:03:54.982Z,2.50
2019-01-02T21:06:24.894Z,2.50
2019-01-02T21:08:55.129Z,2.50
2019-01-02T21:11:25.948Z,2.50
2019-01-02T21:13:56.244Z,2.50
2019-01-02T21:16:26.591Z,2.40
2019-01-02T21:18:56.875Z,2.40
2019-01-02T21:21:28.566Z,2.40
2019-01-02T21:23:59.445Z,2.30
2019-01-02T21:26:30.075Z,2.20
2019-01-02T21:29:00.381Z,2.10
2019-01-02T21:31:30.254Z,2.00
2019-01-02T21:34:00.860Z,1.90
2019-01-02T21:36:31.423Z,1.80
2019-01-02T21:39:01.942Z,1.80
2019-01-02T21:41:34.213Z,1.70
2019-01-02T21:44:05.213Z,1.70
2019-01-02T21:46:35.891Z,1.60
2019-01-02T21:49:06.357Z,1.60
2019-01-02T21:51:37.013Z,1.50
2019-01-02T21:54:07.401Z,1.50
2019-01-02T21:56:38.179Z,1.40
2019-01-02T21:59:08.829Z,1.40
2019-01-02T22:01:39.501Z,1.40
2019-01-02T22:04:10.500Z,1.40
2019-01-02T22:06:41.314Z,1.40
2019-01-02T22:09:11.819Z,1.40
2019-01-02T22:11:42.784Z,1.30
2019-01-02T22:14:14.672Z,1.30
2019-01-02T22:16:44.943Z,1.30
2019-01-02T22:19:15.557Z,1.30
2019-01-02T22:21:46.182Z,1.20
2019-01-02T22:24:17.004Z,1.20
2019-01-02T22:26:47.290Z,1.20
2019-01-02T22:29:18.128Z,1.20
2019-01-02T22:31:48.744Z,1.20
2019-01-02T22:34:20.538Z,1.20
2019-01-02T22:36:50.848Z,1.20
2019-01-02T22:39:21.116Z,1.20
2019-01-02T22:41:51.788Z,1.20
2019-01-02T22:44:22.325Z,1.30
2019-01-02T22:46:52.872Z,1.30
2019-01-02T22:49:23.268Z,1.20
2019-01-02T22:51:53.860Z,1.20
2019-01-02T22:54:24.418Z,1.20
2019-01-02T22:56:55.156Z,1.20
2019-01-02T22:59:25.800Z,1.20
2019-01-02T23:02:23.927Z,1.20
2019-01-02T23:05:02.916Z,1.10
2019-01-02T23:08:04.314Z,1.10
2019-01-02T23:10:59.306Z,1.00
2019-01-02T23:13:51.788Z,1.00
2019-01-02T23:16:39.870Z,1.00
2019-01-02T23:19:28.630Z,1.00
2019-01-02T23:22:33.548Z,1.00
2019-01-02T23:25:24.548Z,1.00
2019-01-02T23:28:19.726Z,0.90
2019-01-02T23:31:03.122Z,0.90
2019-01-02T23:34:01.508Z,0.80
2019-01-02T23:36:59.890Z,0.80
2019-01-02T23:39:38.391Z,0.70
2019-01-02T23:42:24.886Z,0.70
2019-01-02T23:45:12.756Z,0.60
2019-01-02T23:48:00.540Z,0.60
2019-01-02T23:50:48.140Z,0.50
2019-01-02T23:53:46.371Z,0.50
2019-01-02T23:56:34.225Z,0.50
2019-01-02T23:59:23.984Z,0.60
